Time;durP1;ratioP1;P1;durP2;ratioP2;P2;SDS_P1;SDS_P2;PMS_P1;PMS_P2;Temp;Humidity;BMP_temperature;BMP_pressure;BME280_temperature;BME280_humidity;BME280_pressure;Samples;Min_cycle;Max_cycle;Signal;HPM_P1;HPM_P2
2023/07/02 00:00:42;;;;;;;1.30;0.93;;;;;;;19.47;83.43;97400.47;2586428;28;20046;-93
2023/07/02 00:02:19;;;;;;;1.15;0.90;;;;;;;19.58;85.22;97405.75;2585535;28;20186;-91
2023/07/02 00:03:34;;;;;;;0.65;0.65;;;;;;;19.46;90.58;97404.09;2587363;28;20043;-91
2023/07/02 00:04:50;;;;;;;1.00;0.90;;;;;;;19.30;98.96;97412.44;2590913;28;20050;-91
2023/07/02 00:06:06;;;;;;;1.40;1.02;;;;;;;19.23;100.00;97412.09;2589216;28;20414;-92
2023/07/02 00:07:25;;;;;;;3.55;1.10;;;;;;;19.05;100.00;97414.41;2585879;28;20104;-92
2023/07/02 00:08:41;;;;;;;1.10;0.80;;;;;;;18.83;100.00;97418.72;2586130;28;20513;-91
2023/07/02 00:09:56;;;;;;;1.08;0.98;;;;;;;18.82;100.00;97417.03;2587353;28;20053;-92
2023/07/02 00:11:15;;;;;;;0.70;0.70;;;;;;;18.66;100.00;97419.22;2587011;28;20041;-92
2023/07/02 00:12:30;;;;;;;1.00;0.75;;;;;;;18.67;100.00;97431.50;2581183;28;20429;-93
2023/07/02 00:13:46;;;;;;;0.95;0.70;;;;;;;18.51;100.00;97415.94;2580781;28;20081;-93
2023/07/02 00:15:02;;;;;;;0.70;0.70;;;;;;;18.37;100.00;97417.81;2579100;28;20050;-90
2023/07/02 00:16:18;;;;;;;0.93;0.80;;;;;;;18.26;100.00;97425.75;2584638;28;20057;-93
2023/07/02 00:17:33;;;;;;;3.45;1.30;;;;;;;17.95;100.00;97420.94;2590886;28;20049;-93
2023/07/02 00:18:52;;;;;;;3.92;1.23;;;;;;;17.74;100.00;97429.50;2588726;28;20086;-91
2023/07/02 00:20:15;;;;;;;1.08;0.98;;;;;;;17.60;100.00;97433.19;2584302;28;20133;-91
2023/07/02 00:21:33;;;;;;;1.45;0.90;;;;;;;17.53;100.00;97437.22;2587079;28;20050;-90
2023/07/02 00:22:49;;;;;;;1.15;0.82;;;;;;;17.46;100.00;97433.31;2586729;28;20627;-90
2023/07/02 00:24:04;;;;;;;1.60;1.20;;;;;;;17.81;100.00;97429.03;2580821;28;20177;-90
2023/07/02 00:25:20;;;;;;;1.35;1.02;;;;;;;17.59;100.00;97431.47;2585889;28;20038;-91
2023/07/02 00:26:37;;;;;;;2.22;1.30;;;;;;;17.80;100.00;97428.22;2590202;28;20060;-91
2023/07/02 00:27:53;;;;;;;1.65;1.40;;;;;;;17.77;100.00;97433.75;2588325;28;20105;-92
2023/07/02 00:29:09;;;;;;;3.08;1.40;;;;;;;17.83;100.00;97419.22;2585415;28;20050;-92
2023/07/02 00:30:24;;;;;;;2.10;1.40;;;;;;;18.10;100.00;97429.56;2584647;28;20045;-92
2023/07/02 00:31:40;;;;;;;1.75;1.30;;;;;;;17.74;100.00;97423.34;2588782;28;20398;-92
2023/07/02 00:32:56;;;;;;;2.15;1.80;;;;;;;17.97;100.00;97426.97;2596469;28;20390;-92
2023/07/02 00:34:11;;;;;;;2.78;1.55;;;;;;;18.01;100.00;97425.78;2592314;28;20526;-93
2023/07/02 00:35:27;;;;;;;1.33;1.23;;;;;;;17.88;100.00;97425.84;2587959;28;20066;-91
2023/07/02 00:36:42;;;;;;;1.80;1.20;;;;;;;18.05;100.00;97416.66;2590424;28;20053;-93
2023/07/02 00:37:58;;;;;;;1.30;1.13;;;;;;;18.08;100.00;97420.88;2579967;28;20079;-94
2023/07/02 00:39:13;;;;;;;2.53;1.30;;;;;;;18.10;100.00;97421.63;2581718;28;20073;-92
2023/07/02 00:40:29;;;;;;;2.92;1.40;;;;;;;18.11;100.00;97414.53;2589678;28;20088;-93
2023/07/02 00:41:47;;;;;;;1.90;1.40;;;;;;;18.10;100.00;97428.72;2591014;28;20045;-93
2023/07/02 00:43:03;;;;;;;2.60;1.58;;;;;;;18.02;100.00;97416.00;2583898;28;20172;-94
2023/07/02 00:44:18;;;;;;;3.55;1.65;;;;;;;18.09;100.00;97419.06;2585408;28;20049;-93
2023/07/02 00:45:34;;;;;;;9.18;1.50;;;;;;;18.13;100.00;97416.06;2576446;28;20062;-92
2023/07/02 00:46:50;;;;;;;2.60;1.38;;;;;;;18.13;100.00;97420.56;2577870;28;20497;-93
2023/07/02 00:48:06;;;;;;;1.58;1.48;;;;;;;18.07;100.00;97417.38;2585829;28;20688;-93
2023/07/02 00:49:22;;;;;;;2.63;1.42;;;;;;;18.02;100.00;97416.91;2583642;28;20046;-93
2023/07/02 00:50:39;;;;;;;2.20;1.58;;;;;;;18.10;100.00;97420.78;2579103;28;20064;-92
2023/07/02 00:51:55;;;;;;;2.85;1.50;;;;;;;18.15;100.00;97418.63;2579083;28;20498;-94
2023/07/02 00:53:11;;;;;;;2.08;1.60;;;;;;;18.08;100.00;97412.94;2577254;28;20050;-94
2023/07/02 00:54:30;;;;;;;2.95;1.60;;;;;;;17.86;100.00;97411.03;2583463;28;20213;-93
2023/07/02 00:55:46;;;;;;;2.28;1.50;;;;;;;18.02;100.00;97414.25;2584717;28;20070;-94
2023/07/02 00:57:02;;;;;;;2.20;1.40;;;;;;;17.95;100.00;97417.44;2583157;28;20043;-93
2023/07/02 00:58:20;;;;;;;1.75;1.33;;;;;;;17.78;100.00;97414.25;2577861;28;20084;-93
2023/07/02 00:59:37;;;;;;;1.48;1.20;;;;;;;17.60;100.00;97419.09;2578461;28;20057;-92
2023/07/02 01:00:56;;;;;;;1.27;1.15;;;;;;;17.64;100.00;97415.25;2580112;28;20057;-92
2023/07/02 01:02:12;;;;;;;2.00;1.38;;;;;;;17.99;100.00;97416.25;2584278;28;20057;-94
2023/07/02 01:03:28;;;;;;;1.98;1.60;;;;;;;18.02;100.00;97408.06;2585805;28;20152;-93
2023/07/02 01:04:49;;;;;;;1.50;1.40;;;;;;;17.96;100.00;97411.19;2586281;28;20050;-93
2023/07/02 01:06:05;;;;;;;1.70;1.60;;;;;;;17.93;100.00;97412.25;2583786;28;20422;-92
2023/07/02 01:07:21;;;;;;;1.98;1.65;;;;;;;17.99;100.00;97409.16;2581689;28;20069;-93
2023/07/02 01:08:37;;;;;;;2.10;1.35;;;;;;;17.90;100.00;97402.75;2583902;28;20108;-91
2023/07/02 01:09:52;;;;;;;1.92;1.55;;;;;;;17.83;100.00;97409.44;2588786;28;20100;-92
2023/07/02 01:11:08;;;;;;;2.58;1.40;;;;;;;18.10;100.00;97408.38;2582792;28;20064;-94
2023/07/02 01:12:25;;;;;;;1.67;1.52;;;;;;;18.17;100.00;97401.66;2581137;28;20049;-93
2023/07/02 01:13:40;;;;;;;1.83;1.60;;;;;;;18.03;100.00;97410.63;2580971;28;20068;-93
2023/07/02 01:15:01;;;;;;;1.90;1.38;;;;;;;17.99;100.00;97405.66;2589653;28;20118;-94
2023/07/02 01:16:17;;;;;;;3.38;1.65;;;;;;;18.10;100.00;97413.66;2582818;28;20073;-94
2023/07/02 01:17:41;;;;;;;1.98;1.60;;;;;;;17.99;100.00;97406.50;2576094;28;20314;-93
2023/07/02 01:18:57;;;;;;;3.08;1.80;;;;;;;18.04;100.00;97407.03;2578096;28;20096;-93
2023/07/02 01:20:13;;;;;;;3.17;1.80;;;;;;;17.83;100.00;97406.81;2582761;28;20042;-92
2023/07/02 01:21:29;;;;;;;2.20;1.60;;;;;;;18.02;100.00;97408.94;2584864;28;20126;-94
2023/07/02 01:22:48;;;;;;;1.83;1.50;;;;;;;17.99;100.00;97416.25;2593725;28;20081;-91
2023/07/02 01:24:04;;;;;;;2.05;1.42;;;;;;;17.82;100.00;97401.63;2585838;28;20068;-92
2023/07/02 01:25:24;;;;;;;2.65;1.40;;;;;;;17.96;100.00;97411.19;2576848;28;20057;-93
2023/07/02 01:26:40;;;;;;;1.83;1.50;;;;;;;17.84;100.00;97408.50;2578567;28;20074;-93
2023/07/02 01:27:58;;;;;;;2.28;1.52;;;;;;;17.71;100.00;97410.34;2583372;28;20046;-93
2023/07/02 01:29:14;;;;;;;2.10;1.60;;;;;;;17.79;100.00;97410.66;2578522;28;20494;-92
2023/07/02 01:30:30;;;;;;;1.63;1.50;;;;;;;17.83;100.00;97409.44;2591095;28;20413;-92
2023/07/02 01:31:46;;;;;;;1.80;1.35;;;;;;;17.89;100.00;97410.78;2588716;28;20050;-93
2023/07/02 01:33:02;;;;;;;3.25;1.20;;;;;;;17.73;100.00;97401.34;2587105;28;20077;-92
2023/07/02 01:34:18;;;;;;;1.90;1.40;;;;;;;17.75;100.00;97412.66;2583759;28;20046;-91
2023/07/02 01:35:33;;;;;;;1.70;1.50;;;;;;;17.75;100.00;97403.91;2582970;28;20057;-93
2023/07/02 01:36:49;;;;;;;1.58;1.42;;;;;;;17.83;100.00;97412.09;2583449;28;20105;-92
2023/07/02 01:38:05;;;;;;;1.85;1.40;;;;;;;17.75;100.00;97404.72;2587943;28;20045;-92
2023/07/02 01:39:21;;;;;;;2.63;1.40;;;;;;;17.82;100.00;97409.59;2586791;28;20053;-91
2023/07/02 01:40:36;;;;;;;2.92;1.25;;;;;;;17.90;100.00;97405.41;2583278;28;20084;-92
2023/07/02 01:41:54;;;;;;;2.33;1.58;;;;;;;17.96;100.00;97405.88;2583769;28;20049;-92
2023/07/02 01:43:09;;;;;;;1.88;1.30;;;;;;;17.87;100.00;97408.25;2584669;28;20104;-93
2023/07/02 01:44:25;;;;;;;3.85;1.98;;;;;;;17.86;100.00;97401.28;2584525;28;20552;-92
2023/07/02 01:45:43;;;;;;;3.75;1.65;;;;;;;17.98;100.00;97410.13;2583550;28;20054;-92
2023/07/02 01:46:59;;;;;;;1.90;1.60;;;;;;;18.00;100.00;97410.84;2583992;28;20054;-92
2023/07/02 01:48:14;;;;;;;2.00;1.50;;;;;;;17.99;100.00;97409.16;2584164;28;20048;-92
2023/07/02 01:49:30;;;;;;;2.58;1.65;;;;;;;18.14;100.00;97409.00;2584126;28;20042;-93
2023/07/02 01:50:45;;;;;;;2.97;1.52;;;;;;;18.04;100.00;97406.19;2583735;28;20049;-92
2023/07/02 01:52:02;;;;;;;1.70;1.50;;;;;;;18.01;100.00;97404.59;2584849;28;20620;-93
2023/07/02 01:53:17;;;;;;;2.78;1.70;;;;;;;18.14;100.00;97404.53;2588524;28;20046;-92
2023/07/02 01:54:35;;;;;;;3.25;1.75;;;;;;;18.19;100.00;97402.38;2586345;28;20322;-92
2023/07/02 01:55:50;;;;;;;1.88;1.60;;;;;;;18.38;100.00;97395.66;2583331;28;20050;-92
2023/07/02 01:57:06;;;;;;;2.17;1.60;;;;;;;18.16;100.00;97401.75;2583447;28;20050;-91
2023/07/02 01:58:22;;;;;;;2.40;1.60;;;;;;;18.13;100.00;97404.66;2584133;28;20053;-92
2023/07/02 01:59:37;;;;;;;2.92;1.90;;;;;;;18.21;100.00;97402.25;2583978;28;20061;-92
2023/07/02 02:00:53;;;;;;;2.03;1.42;;;;;;;18.13;100.00;97404.66;2582521;28;20054;-92
2023/07/02 02:02:08;;;;;;;1.98;1.52;;;;;;;18.24;100.00;97404.69;2583838;28;20457;-93
2023/07/02 02:03:24;;;;;;;1.85;1.50;;;;;;;18.21;100.00;97410.19;2588279;28;20045;-92
2023/07/02 02:04:40;;;;;;;2.67;1.83;;;;;;;18.01;100.00;97404.59;2585994;28;20046;-92
2023/07/02 02:05:55;;;;;;;4.82;1.40;;;;;;;18.08;100.00;97407.66;2581670;28;20085;-92
2023/07/02 02:07:11;;;;;;;1.75;1.52;;;;;;;18.27;100.00;97408.88;2576592;28;20046;-92
2023/07/02 02:08:26;;;;;;;3.00;1.40;;;;;;;18.14;100.00;97409.81;2583087;28;20292;-92
2023/07/02 02:09:42;;;;;;;2.13;1.40;;;;;;;18.05;100.00;97406.06;2584579;28;20050;-90
2023/07/02 02:10:57;;;;;;;2.03;1.50;;;;;;;18.15;100.00;97408.84;2583033;28;20054;-90
2023/07/02 02:12:14;;;;;;;0.82;0.82;;;;;;;18.04;100.00;97409.69;2585616;28;20101;-90
2023/07/02 02:13:29;;;;;;;2.30;1.50;;;;;;;18.13;100.00;97402.00;2583326;28;20125;-91
2023/07/02 02:14:45;;;;;;;1.60;1.23;;;;;;;18.20;100.00;97406.72;2583544;28;20074;-92
2023/07/02 02:16:00;;;;;;;3.15;1.50;;;;;;;18.29;100.00;97407.81;2582247;28;20050;-92
2023/07/02 02:17:16;;;;;;;2.58;1.38;;;;;;;18.28;100.00;97418.53;2582874;28;20049;-91
2023/07/02 02:18:32;;;;;;;1.35;1.20;;;;;;;18.16;100.00;97413.22;2583032;28;20126;-89
2023/07/02 02:19:47;;;;;;;1.50;1.17;;;;;;;18.09;100.00;97411.97;2583026;28;20058;-91
2023/07/02 02:21:03;;;;;;;1.70;1.20;;;;;;;18.09;100.00;97419.94;2581979;28;20050;-90
2023/07/02 02:22:18;;;;;;;1.58;1.27;;;;;;;18.15;100.00;97419.44;2583869;28;20054;-91
2023/07/02 02:23:34;;;;;;;3.75;1.40;;;;;;;18.46;100.00;97413.63;2582420;28;20050;-91
2023/07/02 02:24:49;;;;;;;1.45;0.95;;;;;;;18.12;100.00;97413.56;2581931;28;20340;-92
2023/07/02 02:26:05;;;;;;;1.15;1.05;;;;;;;18.16;100.00;97421.16;2582268;28;20486;-90
2023/07/02 02:27:20;;;;;;;1.50;1.40;;;;;;;18.27;100.00;97419.47;2584212;28;20456;-90
2023/07/02 02:28:36;;;;;;;1.40;1.20;;;;;;;18.30;100.00;97421.91;2583536;28;20458;-92
2023/07/02 02:29:52;;;;;;;1.58;1.42;;;;;;;18.34;100.00;97426.84;2583200;28;20050;-91
2023/07/02 02:31:07;;;;;;;1.40;1.30;;;;;;;18.26;100.00;97423.09;2583970;28;20046;-91
2023/07/02 02:32:24;;;;;;;1.27;1.17;;;;;;;18.34;100.00;97413.59;2583982;28;20053;-90
2023/07/02 02:33:39;;;;;;;3.05;1.40;;;;;;;18.47;100.00;97413.53;2582322;28;20049;-91
2023/07/02 02:34:55;;;;;;;2.75;1.60;;;;;;;18.35;100.00;97417.09;2582184;28;20086;-90
2023/07/02 02:36:10;;;;;;;2.75;1.40;;;;;;;18.20;100.00;97412.03;2585019;28;20061;-90
2023/07/02 02:37:26;;;;;;;2.22;1.27;;;;;;;18.27;100.00;97411.53;2582572;28;20061;-90
2023/07/02 02:38:42;;;;;;;2.90;1.48;;;;;;;18.38;100.00;97416.03;2583555;28;20046;-90
2023/07/02 02:39:57;;;;;;;1.60;1.10;;;;;;;18.37;100.00;97407.22;2583516;28;20049;-90
2023/07/02 02:41:13;;;;;;;1.30;1.20;;;;;;;18.31;100.00;97408.53;2584460;28;20050;-90
2023/07/02 02:42:29;;;;;;;2.25;1.48;;;;;;;18.56;100.00;97408.44;2583086;28;20324;-91
2023/07/02 02:43:44;;;;;;;2.85;1.58;;;;;;;18.41;100.00;97406.03;2580820;28;20084;-93
2023/07/02 02:45:00;;;;;;;1.40;0.93;;;;;;;18.34;100.00;97410.13;2580961;28;20555;-91
2023/07/02 02:46:22;;;;;;;1.90;1.20;;;;;;;18.45;100.00;97406.63;2583510;28;20042;-92
2023/07/02 02:47:38;;;;;;;3.17;1.60;;;;;;;18.44;100.00;97402.31;2582807;28;20489;-93
2023/07/02 02:48:53;;;;;;;1.33;0.90;;;;;;;18.36;100.00;97405.53;2583348;28;20054;-90
2023/07/02 02:50:12;;;;;;;0.98;0.88;;;;;;;18.33;100.00;97411.09;2583821;28;20050;-90
2023/07/02 02:51:28;;;;;;;2.88;1.20;;;;;;;18.33;100.00;97408.44;2584736;28;20085;-90
2023/07/02 02:52:43;;;;;;;2.58;1.42;;;;;;;18.37;100.00;97409.88;2583593;28;20050;-91
2023/07/02 02:53:59;;;;;;;1.77;1.38;;;;;;;18.46;100.00;97406.53;2583867;28;20045;-92
2023/07/02 02:55:15;;;;;;;3.38;1.50;;;;;;;18.78;100.00;97407.63;2584622;28;20573;-90
2023/07/02 02:56:30;;;;;;;1.30;1.20;;;;;;;18.34;100.00;97405.66;2582591;28;20061;-91
2023/07/02 02:57:45;;;;;;;1.60;1.15;;;;;;;18.25;100.00;97416.97;2584520;28;20413;-90
2023/07/02 02:59:01;;;;;;;3.42;1.65;;;;;;;18.42;100.00;97413.00;2589007;28;20062;-90
2023/07/02 03:00:17;;;;;;;1.65;1.40;;;;;;;18.54;100.00;97415.69;2587065;28;20042;-90
2023/07/02 03:01:32;;;;;;;1.77;1.30;;;;;;;18.34;100.00;97421.56;2587950;28;20064;-89
2023/07/02 03:02:48;;;;;;;2.25;1.70;;;;;;;18.40;100.00;97414.94;2588389;28;20145;-90
2023/07/02 03:04:03;;;;;;;2.33;1.60;;;;;;;18.31;100.00;97416.50;2586538;28;20109;-90
2023/07/02 03:05:19;;;;;;;1.98;1.67;;;;;;;18.44;100.00;97418.19;2589153;28;20129;-91
2023/07/02 03:06:35;;;;;;;1.30;1.13;;;;;;;18.43;100.00;97419.16;2587429;28;20050;-91
2023/07/02 03:07:51;;;;;;;1.80;1.60;;;;;;;18.58;100.00;97420.63;2582649;28;20050;-91
2023/07/02 03:09:06;;;;;;;2.15;1.80;;;;;;;18.46;100.00;97425.09;2582227;28;20108;-89
2023/07/02 03:10:22;;;;;;;4.00;1.65;;;;;;;18.41;100.00;97418.44;2583468;28;20128;-91
2023/07/02 03:11:38;;;;;;;1.45;1.30;;;;;;;18.29;100.00;97421.06;2584648;28;20205;-91
2023/07/02 03:12:53;;;;;;;1.77;1.52;;;;;;;18.63;100.00;97428.22;2583675;28;20054;-90
2023/07/02 03:14:09;;;;;;;1.40;1.30;;;;;;;18.60;100.00;97425.81;2582195;28;20046;-91
2023/07/02 03:15:24;;;;;;;2.33;1.73;;;;;;;18.69;100.00;97419.78;2584021;28;20045;-91
2023/07/02 03:16:41;;;;;;;1.70;1.40;;;;;;;18.76;100.00;97421.00;2585174;28;20054;-89
2023/07/02 03:17:57;;;;;;;3.13;1.65;;;;;;;18.53;100.00;97420.16;2584941;28;20050;-92
2023/07/02 03:19:15;;;;;;;2.40;1.73;;;;;;;18.90;100.00;97427.03;2584892;28;20802;-90
2023/07/02 03:20:31;;;;;;;1.98;1.55;;;;;;;18.80;100.00;97434.88;2584127;28;20394;-90
2023/07/02 03:21:46;;;;;;;2.08;1.20;;;;;;;18.42;100.00;97436.03;2584413;28;20088;-91
2023/07/02 03:23:02;;;;;;;2.47;1.60;;;;;;;18.65;100.00;97442.22;2583985;28;20046;-92
2023/07/02 03:24:18;;;;;;;2.38;1.75;;;;;;;18.81;100.00;97438.38;2585567;28;20115;-90
2023/07/02 03:25:33;;;;;;;1.80;1.70;;;;;;;18.84;100.00;97438.97;2589478;28;20105;-92
2023/07/02 03:26:49;;;;;;;3.65;1.70;;;;;;;18.98;100.00;97432.56;2582914;28;20045;-92
2023/07/02 03:28:04;;;;;;;3.95;1.63;;;;;;;19.05;100.00;97433.81;2587930;28;20580;-92
2023/07/02 03:29:20;;;;;;;2.10;1.70;;;;;;;19.02;100.00;97434.06;2584783;28;20275;-92
2023/07/02 03:30:35;;;;;;;1.90;1.70;;;;;;;18.99;100.00;97434.28;2584561;28;20106;-92
2023/07/02 03:31:51;;;;;;;2.60;1.80;;;;;;;18.88;100.00;97436.94;2583626;28;20664;-92
2023/07/02 03:33:09;;;;;;;2.70;1.35;;;;;;;18.80;100.00;97437.53;2583518;28;20482;-91
2023/07/02 03:34:25;;;;;;;2.70;1.83;;;;;;;18.84;100.00;97440.78;2584679;28;20042;-92
2023/07/02 03:35:40;;;;;;;2.40;1.80;;;;;;;19.03;100.00;97443.72;2584127;28;20058;-91
2023/07/02 03:36:56;;;;;;;2.53;1.73;;;;;;;19.10;100.00;97445.88;2584884;28;20112;-89
2023/07/02 03:38:12;;;;;;;2.47;1.80;;;;;;;19.15;100.00;97444.53;2583125;28;20052;-93
2023/07/02 03:39:27;;;;;;;1.42;1.33;;;;;;;18.82;100.00;97451.50;2585023;28;20204;-91
2023/07/02 03:40:43;;;;;;;1.67;1.55;;;;;;;18.76;100.00;97447.53;2584255;28;20054;-92
2023/07/02 03:41:58;;;;;;;2.55;1.52;;;;;;;18.68;100.00;97443.78;2584141;28;20383;-92
2023/07/02 03:43:14;;;;;;;2.58;1.83;;;;;;;18.89;100.00;97446.56;2584256;28;20447;-92
2023/07/02 03:44:29;;;;;;;2.30;1.60;;;;;;;19.01;100.00;97445.66;2586460;28;20054;-91
2023/07/02 03:45:45;;;;;;;2.03;1.73;;;;;;;18.86;100.00;97449.47;2585448;28;20049;-93
2023/07/02 03:47:01;;;;;;;3.05;1.80;;;;;;;18.75;100.00;97456.44;2583962;28;20564;-91
2023/07/02 03:48:16;;;;;;;3.30;1.58;;;;;;;18.93;100.00;97448.00;2585006;28;20146;-91
2023/07/02 03:49:32;;;;;;;2.90;1.90;;;;;;;18.74;100.00;97453.91;2589593;28;20054;-91
2023/07/02 03:50:47;;;;;;;3.97;1.73;;;;;;;18.47;100.00;97453.28;2586672;28;20502;-91
2023/07/02 03:52:03;;;;;;;1.98;1.58;;;;;;;18.46;100.00;97456.03;2583566;28;20430;-92
2023/07/02 03:53:18;;;;;;;2.03;1.30;;;;;;;18.51;100.00;97463.63;2585430;28;20045;-92
2023/07/02 03:54:34;;;;;;;2.60;1.70;;;;;;;18.57;100.00;97464.00;2585932;28;20104;-91
2023/07/02 03:55:50;;;;;;;4.25;1.90;;;;;;;18.49;100.00;97458.44;2585994;28;20077;-92
2023/07/02 03:57:05;;;;;;;4.55;1.80;;;;;;;18.52;100.00;97460.03;2585220;28;20145;-92
2023/07/02 03:58:21;;;;;;;4.18;1.77;;;;;;;18.80;100.00;97463.19;2584016;28;20073;-92
2023/07/02 03:59:36;;;;;;;2.38;1.80;;;;;;;18.60;100.00;97465.59;2584022;28;20050;-91
2023/07/02 04:00:52;;;;;;;2.28;1.70;;;;;;;18.60;100.00;97462.94;2586241;28;20568;-91
2023/07/02 04:02:07;;;;;;;2.78;1.90;;;;;;;18.70;100.00;97469.19;2583712;28;20069;-91
2023/07/02 04:03:23;;;;;;;2.40;1.80;;;;;;;18.62;100.00;97476.91;2583815;28;20450;-90
2023/07/02 04:04:39;;;;;;;2.40;1.70;;;;;;;18.49;100.00;97472.56;2585235;28;20050;-91
2023/07/02 04:05:54;;;;;;;2.42;1.70;;;;;;;18.66;100.00;97480.19;2584714;28;20053;-91
2023/07/02 04:07:10;;;;;;;2.53;1.80;;;;;;;18.45;100.00;97480.84;2583887;28;20683;-91
2023/07/02 04:08:28;;;;;;;2.15;1.40;;;;;;;18.54;100.00;97482.81;2583756;28;20062;-90
2023/07/02 04:09:43;;;;;;;3.25;1.70;;;;;;;18.57;100.00;97484.34;2584561;28;20073;-91
2023/07/02 04:10:59;;;;;;;5.40;1.75;;;;;;;18.53;100.00;97486.41;2596034;28;20072;-90
2023/07/02 04:12:14;;;;;;;2.13;1.90;;;;;;;18.40;100.00;97475.06;2590502;28;20050;-91
2023/07/02 04:13:30;;;;;;;1.58;1.27;;;;;;;18.28;100.00;97475.03;2584939;28;20068;-90
2023/07/02 04:14:46;;;;;;;1.88;1.58;;;;;;;18.08;100.00;97476.50;2583771;28;20046;-90
2023/07/02 04:16:01;;;;;;;2.17;1.77;;;;;;;18.35;100.00;97478.88;2581792;28;20082;-90
2023/07/02 04:17:17;;;;;;;1.73;1.50;;;;;;;18.09;100.00;97477.34;2583551;28;20509;-90
2023/07/02 04:18:33;;;;;;;2.00;1.35;;;;;;;17.98;100.00;97475.47;2583831;28;20081;-92
2023/07/02 04:19:48;;;;;;;1.08;0.98;;;;;;;17.89;100.00;97472.56;2589597;28;20123;-91
2023/07/02 04:21:04;;;;;;;2.10;1.42;;;;;;;18.05;100.00;97472.28;2580947;28;20494;-90
2023/07/02 04:22:20;;;;;;;2.75;1.80;;;;;;;18.35;100.00;97480.69;2584065;28;20050;-92
2023/07/02 04:23:36;;;;;;;2.38;1.75;;;;;;;18.13;100.00;97474.34;2589680;28;20486;-91
2023/07/02 04:24:51;;;;;;;4.40;2.20;;;;;;;18.40;100.00;97478.53;2586394;28;20127;-91
2023/07/02 04:26:07;;;;;;;2.28;1.80;;;;;;;18.60;100.00;97484.16;2587023;28;20516;-91
2023/07/02 04:27:23;;;;;;;4.25;2.28;;;;;;;18.62;100.00;97488.34;2586386;28;20101;-92
2023/07/02 04:28:38;;;;;;;2.25;1.75;;;;;;;18.56;100.00;97493.28;2586453;28;20466;-91
2023/07/02 04:29:55;;;;;;;2.20;1.90;;;;;;;18.68;100.00;97492.34;2587524;28;20677;-93
2023/07/02 04:31:11;;;;;;;2.67;2.28;;;;;;;18.49;100.00;97491.09;2590113;28;20046;-91
2023/07/02 04:32:26;;;;;;;3.17;1.95;;;;;;;18.64;100.00;97501.50;2589042;28;20046;-91
2023/07/02 04:33:42;;;;;;;3.22;1.75;;;;;;;18.42;100.00;97495.16;2586512;28;20057;-92
2023/07/02 04:34:58;;;;;;;3.97;2.10;;;;;;;18.44;100.00;97495.91;2585633;28;20053;-92
2023/07/02 04:36:14;;;;;;;2.22;2.03;;;;;;;18.54;100.00;97503.16;2584849;28;20483;-91
2023/07/02 04:37:30;;;;;;;4.93;2.60;;;;;;;18.76;100.00;97500.56;2583954;28;20076;-91
2023/07/02 04:38:45;;;;;;;3.17;2.17;;;;;;;18.53;100.00;97499.69;2583224;28;20046;-92
2023/07/02 04:40:02;;;;;;;2.15;1.92;;;;;;;18.59;100.00;97495.72;2588426;28;20453;-91
2023/07/02 04:41:19;;;;;;;3.10;1.80;;;;;;;18.61;100.00;97499.09;2586467;28;20924;-91
2023/07/02 04:42:37;;;;;;;2.88;2.13;;;;;;;18.62;100.00;97492.81;2583485;28;20046;-91
2023/07/02 04:43:52;;;;;;;2.72;2.00;;;;;;;18.55;100.00;97492.44;2583937;28;20486;-91
2023/07/02 04:45:08;;;;;;;2.78;2.08;;;;;;;18.56;100.00;97495.91;2584294;28;20143;-91
2023/07/02 04:46:24;;;;;;;2.35;2.08;;;;;;;18.68;100.00;97497.63;2584020;28;20050;-91
2023/07/02 04:47:39;;;;;;;3.10;2.05;;;;;;;18.60;100.00;97494.75;2584793;28;20407;-92
2023/07/02 04:48:55;;;;;;;2.45;2.00;;;;;;;18.68;100.00;97499.47;2584288;28;20057;-92
2023/07/02 04:50:11;;;;;;;1.95;1.67;;;;;;;18.63;100.00;97497.16;2584758;28;20074;-94
2023/07/02 04:51:27;;;;;;;2.83;2.03;;;;;;;18.87;100.00;97496.25;2583831;28;20049;-93
2023/07/02 04:52:42;;;;;;;2.33;2.03;;;;;;;19.02;100.00;97497.72;2585313;28;20108;-92
2023/07/02 04:53:58;;;;;;;2.80;1.80;;;;;;;18.81;100.00;97497.56;2584897;28;20057;-92
2023/07/02 04:55:14;;;;;;;3.92;1.80;;;;;;;18.72;100.00;97498.25;2585014;28;20048;-93
2023/07/02 04:56:29;;;;;;;1.88;1.73;;;;;;;19.03;100.00;97495.91;2588632;28;20469;-92
2023/07/02 04:57:45;;;;;;;3.05;2.05;;;;;;;19.12;100.00;97495.19;2580680;28;20046;-93
2023/07/02 04:59:00;;;;;;;3.35;2.10;;;;;;;19.32;100.00;97500.72;2575781;28;20046;-92
2023/07/02 05:00:16;;;;;;;2.15;1.80;;;;;;;19.44;100.00;97491.78;2584098;28;20041;-94
2023/07/02 05:01:32;;;;;;;2.72;2.17;;;;;;;19.40;100.00;97489.50;2577042;28;20046;-93
2023/07/02 05:02:47;;;;;;;3.45;2.00;;;;;;;19.48;100.00;97476.47;2582150;28;20112;-95
2023/07/02 05:04:05;;;;;;;1.88;1.65;;;;;;;19.34;100.00;97478.41;2583893;28;20112;-94
2023/07/02 05:05:21;;;;;;;2.67;2.10;;;;;;;19.41;100.00;97473.47;2582136;28;20141;-96
2023/07/02 05:06:37;;;;;;;2.28;1.80;;;;;;;19.55;100.00;97480.31;2582368;28;20453;-95
2023/07/02 05:07:54;;;;;;;4.10;2.33;;;;;;;19.39;100.00;97469.25;2578463;28;20085;-93
2023/07/02 05:09:10;;;;;;;2.55;2.05;;;;;;;19.25;100.00;97473.84;2578074;28;20105;-94
2023/07/02 05:10:25;;;;;;;2.05;1.85;;;;;;;19.44;100.00;97473.22;2585155;28;20056;-95
2023/07/02 05:11:41;;;;;;;2.13;1.90;;;;;;;19.59;100.00;97479.13;2584459;28;20045;-94
2023/07/02 05:12:57;;;;;;;2.22;1.80;;;;;;;19.49;100.00;97480.81;2582039;28;20057;-94
2023/07/02 05:14:12;;;;;;;2.65;1.80;;;;;;;19.55;100.00;97493.59;2585481;28;20034;-95
2023/07/02 05:15:28;;;;;;;2.42;2.08;;;;;;;19.69;100.00;97491.63;2576451;28;20073;-95
2023/07/02 05:16:44;;;;;;;2.75;2.10;;;;;;;19.71;100.00;97498.50;2575290;28;20405;-96
2023/07/02 05:17:59;;;;;;;2.00;1.80;;;;;;;19.76;100.00;97491.00;2583637;28;20038;-95
2023/07/02 05:19:15;;;;;;;2.35;2.15;;;;;;;19.81;100.00;97492.47;2581845;28;20049;-95
2023/07/02 05:20:31;;;;;;;3.30;1.83;;;;;;;19.89;100.00;97490.88;2582232;28;20049;-96
2023/07/02 05:21:47;;;;;;;2.45;2.25;;;;;;;20.14;100.00;97490.69;2572496;28;20328;-96
2023/07/02 05:23:03;;;;;;;2.67;1.55;;;;;;;19.80;100.00;97486.28;2569762;28;20057;-93
2023/07/02 05:24:18;;;;;;;1.80;1.30;;;;;;;19.70;100.00;97482.72;2584272;28;20109;-94
2023/07/02 05:25:34;;;;;;;3.58;1.63;;;;;;;19.74;100.00;97486.81;2590166;28;20180;-93
2023/07/02 05:26:53;;;;;;;2.10;1.55;;;;;;;19.60;100.00;97490.56;2586803;28;20093;-95
2023/07/02 05:28:11;;;;;;;1.73;1.40;;;;;;;19.63;100.00;97490.34;2580806;28;20121;-93
2023/07/02 05:29:26;;;;;;;1.42;1.30;;;;;;;19.65;100.00;97485.75;2583218;28;20543;-90
2023/07/02 05:30:42;;;;;;;2.60;1.40;;;;;;;19.63;100.00;97487.69;2584055;28;20046;-91
2023/07/02 05:31:57;;;;;;;1.48;1.38;;;;;;;19.50;100.00;97481.66;2583526;28;20045;-91
2023/07/02 05:33:13;;;;;;;1.85;1.60;;;;;;;19.67;100.00;97488.25;2582412;28;20043;-93
2023/07/02 05:34:29;;;;;;;3.20;1.92;;;;;;;19.72;100.00;97489.56;2582905;28;20061;-91
2023/07/02 05:35:45;;;;;;;1.60;1.50;;;;;;;19.49;100.00;97486.13;2582447;28;20454;-90
2023/07/02 05:37:01;;;;;;;2.53;1.85;;;;;;;19.62;100.00;97486.81;2582649;28;20038;-92
2023/07/02 05:38:18;;;;;;;1.15;1.00;;;;;;;19.35;100.00;97492.56;2583227;28;20096;-90
2023/07/02 05:39:34;;;;;;;2.13;1.65;;;;;;;19.46;100.00;97497.00;2576742;28;20041;-90
2023/07/02 05:40:50;;;;;;;2.92;2.00;;;;;;;19.59;100.00;97489.72;2582650;28;20073;-93
2023/07/02 05:42:06;;;;;;;2.03;1.50;;;;;;;19.48;100.00;97484.44;2585742;28;20490;-92
2023/07/02 05:43:21;;;;;;;2.38;1.65;;;;;;;19.39;100.00;97493.13;2586577;28;20046;-93
2023/07/02 05:44:37;;;;;;;2.35;1.90;;;;;;;19.75;100.00;97496.47;2588993;28;20390;-94
2023/07/02 05:45:53;;;;;;;3.90;1.50;;;;;;;19.66;100.00;97497.19;2582539;28;20042;-94
2023/07/02 05:47:08;;;;;;;1.65;1.25;;;;;;;19.69;100.00;97487.16;2585441;28;20054;-94
2023/07/02 05:48:24;;;;;;;2.60;1.70;;;;;;;19.69;100.00;97492.47;2583267;28;20041;-93
2023/07/02 05:49:42;;;;;;;3.13;1.70;;;;;;;19.75;100.00;97496.47;2591010;28;20150;-94
2023/07/02 05:50:58;;;;;;;1.73;1.48;;;;;;;19.88;100.00;97501.59;2593198;28;20096;-94
2023/07/02 05:52:13;;;;;;;2.45;2.10;;;;;;;20.11;100.00;97502.41;2586280;28;20050;-96
2023/07/02 05:53:29;;;;;;;2.42;1.60;;;;;;;19.95;100.00;97491.34;2591236;28;20050;-95